Time;durP1;ratioP1;P1;durP2;ratioP2;P2;SDS_P1;SDS_P2;PMS_P1;PMS_P2;Temp;Humidity;BMP_temperature;BMP_pressure;BME280_temperature;BME280_humidity;BME280_pressure;Samples;Min_cycle;Max_cycle;Signal;HPM_P1;HPM_P2
2021/12/27 00:00:12;;;;;;;7.00;6.30;;;10.10;99.90;;;;;;4995902;28;20777;-62
2021/12/27 00:02:39;;;;;;;6.90;6.30;;;10.10;99.90;;;;;;4995737;28;20415;-62
2021/12/27 00:05:05;;;;;;;6.07;5.57;;;10.10;99.90;;;;;;4995709;28;20510;-62
2021/12/27 00:07:31;;;;;;;6.30;5.80;;;10.20;99.90;;;;;;4995702;28;20904;-61
2021/12/27 00:09:56;;;;;;;7.40;6.70;;;10.20;99.90;;;;;;4995860;28;20409;-61
2021/12/27 00:12:22;;;;;;;6.80;6.20;;;10.20;99.90;;;;;;4995501;28;20171;-63
2021/12/27 00:14:48;;;;;;;6.50;5.80;;;10.20;99.90;;;;;;4995587;28;20660;-63
2021/12/27 00:17:13;;;;;;;7.90;7.20;;;10.20;99.90;;;;;;4995483;28;20183;-63
2021/12/27 00:19:39;;;;;;;8.20;6.90;;;10.20;99.90;;;;;;4995601;28;20559;-62
2021/12/27 00:22:04;;;;;;;6.67;5.80;;;10.10;99.90;;;;;;4995508;28;20588;-62
2021/12/27 00:24:30;;;;;;;7.20;6.47;;;9.80;99.90;;;;;;4994939;28;20640;-63
2021/12/27 00:26:56;;;;;;;8.10;7.30;;;9.80;99.90;;;;;;4995575;28;20162;-62
2021/12/27 00:29:22;;;;;;;8.07;6.87;;;9.90;99.90;;;;;;4995350;28;20220;-62
2021/12/27 00:31:48;;;;;;;6.53;5.83;;;10.00;99.90;;;;;;4995352;28;20181;-62
2021/12/27 00:34:13;;;;;;;7.13;6.10;;;10.00;99.90;;;;;;4994973;28;20407;-62
2021/12/27 00:36:39;;;;;;;9.27;8.23;;;10.10;99.90;;;;;;4995230;28;20405;-62
2021/12/27 00:39:05;;;;;;;8.63;7.77;;;10.00;99.90;;;;;;4994911;28;20541;-62
2021/12/27 00:41:30;;;;;;;9.13;8.20;;;10.00;99.90;;;;;;4994970;28;20542;-62
2021/12/27 00:43:56;;;;;;;5.57;5.07;;;10.00;99.90;;;;;;4994908;28;20195;-60
2021/12/27 00:46:22;;;;;;;7.50;5.80;;;10.00;99.90;;;;;;4994243;28;20296;-62
2021/12/27 00:48:47;;;;;;;7.70;6.30;;;10.10;99.90;;;;;;4995164;28;20173;-62
2021/12/27 00:51:13;;;;;;;7.97;6.70;;;10.10;99.90;;;;;;4994809;28;20169;-62
2021/12/27 00:53:38;;;;;;;7.13;6.47;;;10.10;99.90;;;;;;4994832;28;20166;-62
2021/12/27 00:56:04;;;;;;;7.53;6.80;;;10.20;99.90;;;;;;4994572;28;20189;-61
2021/12/27 00:58:30;;;;;;;6.73;6.03;;;10.10;99.90;;;;;;4994937;28;20226;-62
2021/12/27 01:00:56;;;;;;;10.17;7.30;;;10.00;99.90;;;;;;4994594;28;20441;-62
2021/12/27 01:03:22;;;;;;;7.97;6.67;;;10.00;99.90;;;;;;4994463;28;20272;-61
2021/12/27 01:05:47;;;;;;;7.00;6.30;;;10.00;99.90;;;;;;4994539;28;20275;-61
2021/12/27 01:08:14;;;;;;;8.03;6.63;;;10.10;99.90;;;;;;4994590;28;20200;-61
2021/12/27 01:13:39;;;;;;;7.20;6.47;;;10.00;99.90;;;;;;4994266;28;20772;-60
2021/12/27 01:18:33;;;;;;;8.20;7.03;;;10.00;99.90;;;;;;4994339;28;20771;-61
2021/12/27 01:20:59;;;;;;;7.37;6.67;;;9.80;99.90;;;;;;4994209;28;20917;-63
2021/12/27 01:23:25;;;;;;;8.47;7.57;;;9.80;99.90;;;;;;4994133;28;20443;-63
2021/12/27 01:25:51;;;;;;;8.50;7.70;;;9.80;99.90;;;;;;4994184;28;20237;-62
2021/12/27 01:28:18;;;;;;;8.27;7.10;;;9.60;99.90;;;;;;4994158;28;20431;-61
2021/12/27 01:30:48;;;;;;;11.03;8.10;;;9.50;99.90;;;;;;4994507;28;20161;-60
2021/12/27 01:33:19;;;;;;;9.70;8.30;;;9.50;99.90;;;;;;4994383;28;20399;-61
2021/12/27 01:35:46;;;;;;;9.70;8.10;;;9.40;99.90;;;;;;4994106;28;20510;-61
2021/12/27 01:38:13;;;;;;;9.53;8.63;;;9.50;99.90;;;;;;4994041;28;20417;-61
2021/12/27 01:40:41;;;;;;;10.80;9.40;;;9.50;99.90;;;;;;4994257;28;20466;-61
2021/12/27 01:43:13;;;;;;;10.57;9.47;;;9.40;99.90;;;;;;4994123;28;20458;-62
2021/12/27 01:45:50;;;;;;;13.50;9.13;;;9.30;99.90;;;;;;4994577;28;20506;-62
2021/12/27 01:48:21;;;;;;;9.43;8.37;;;9.20;99.90;;;;;;4994264;28;20381;-61
2021/12/27 01:50:47;;;;;;;9.90;8.80;;;9.10;99.90;;;;;;4994270;28;20468;-62
2021/12/27 01:53:15;;;;;;;8.07;7.23;;;9.10;99.90;;;;;;4993792;28;20411;-62
2021/12/27 01:55:41;;;;;;;8.37;7.53;;;9.10;99.90;;;;;;4994435;28;20939;-61
2021/12/27 01:58:09;;;;;;;9.67;8.67;;;9.20;99.90;;;;;;4997899;28;20420;-62
2021/12/27 02:00:38;;;;;;;9.47;8.57;;;8.90;99.90;;;;;;4998084;28;20227;-61
2021/12/27 02:03:04;;;;;;;9.93;8.93;;;8.90;99.90;;;;;;4998069;28;20414;-61
2021/12/27 02:05:30;;;;;;;8.97;7.77;;;8.80;99.90;;;;;;4998098;28;20916;-60
2021/12/27 02:07:56;;;;;;;8.83;7.47;;;8.90;99.90;;;;;;4998180;28;20400;-61
2021/12/27 02:10:22;;;;;;;8.83;7.93;;;9.00;99.90;;;;;;4997940;28;20418;-61
2021/12/27 02:12:47;;;;;;;8.23;7.43;;;9.00;99.90;;;;;;4998017;28;20585;-61
2021/12/27 02:15:14;;;;;;;8.33;7.50;;;9.00;99.90;;;;;;4997590;28;20199;-62
2021/12/27 02:17:41;;;;;;;9.53;8.20;;;9.00;99.90;;;;;;4997947;28;20278;-62
2021/12/27 02:20:28;;;;;;;7.77;7.00;;;9.10;99.90;;;;;;4997596;28;20414;-61
2021/12/27 02:23:00;;;;;;;8.13;7.03;;;9.20;99.90;;;;;;4997052;28;20957;-61
2021/12/27 02:25:27;;;;;;;7.90;7.10;;;9.30;99.90;;;;;;4997580;28;20455;-62
2021/12/27 02:27:54;;;;;;;9.97;6.73;;;9.30;99.90;;;;;;4997479;28;20403;-62
2021/12/27 02:30:22;;;;;;;8.83;6.47;;;9.30;99.90;;;;;;4997416;28;20407;-62
2021/12/27 02:32:55;;;;;;;7.50;6.80;;;9.30;99.90;;;;;;4997175;28;20415;-62
2021/12/27 02:35:23;;;;;;;7.10;6.33;;;9.30;99.90;;;;;;4997370;28;20431;-62
2021/12/27 02:37:50;;;;;;;6.60;6.00;;;9.30;99.90;;;;;;4997363;28;20779;-62
2021/12/27 02:40:16;;;;;;;6.50;5.90;;;9.30;99.90;;;;;;4997446;28;20924;-62
2021/12/27 02:43:05;;;;;;;11.10;7.93;;;9.30;99.90;;;;;;4997105;28;20779;-62
2021/12/27 02:45:38;;;;;;;6.70;6.00;;;9.10;99.90;;;;;;4997231;28;20443;-62
2021/12/27 02:48:05;;;;;;;4.80;4.40;;;9.00;99.90;;;;;;4997183;28;20808;-62
2021/12/27 02:50:32;;;;;;;7.13;5.70;;;9.10;99.90;;;;;;4997310;28;20786;-62
2021/12/27 02:52:59;;;;;;;5.20;4.70;;;9.10;99.90;;;;;;4996930;28;20880;-61
2021/12/27 02:55:25;;;;;;;5.40;4.90;;;9.00;99.90;;;;;;4996915;28;20416;-62
2021/12/27 02:57:51;;;;;;;5.90;5.40;;;9.00;99.90;;;;;;4996789;28;20836;-62
2021/12/27 03:00:23;;;;;;;6.03;5.47;;;9.10;99.90;;;;;;4997148;28;20180;-62
2021/12/27 03:02:50;;;;;;;4.93;4.53;;;9.10;99.90;;;;;;4996837;28;20414;-61
2021/12/27 03:05:18;;;;;;;4.20;3.90;;;9.00;99.90;;;;;;4996569;28;20462;-61
2021/12/27 03:07:46;;;;;;;4.50;4.10;;;9.10;99.90;;;;;;4996195;28;20404;-61
2021/12/27 03:10:13;;;;;;;4.70;4.30;;;9.10;99.90;;;;;;4996849;28;20401;-62
2021/12/27 03:12:39;;;;;;;4.00;3.60;;;9.10;99.90;;;;;;4997080;28;20417;-62
2021/12/27 03:15:07;;;;;;;5.13;4.60;;;9.10;99.90;;;;;;4996605;28;20933;-62
2021/12/27 03:17:33;;;;;;;5.87;5.03;;;9.10;99.90;;;;;;4996479;28;20235;-62
2021/12/27 03:19:59;;;;;;;5.10;4.37;;;9.00;99.90;;;;;;4996567;28;20405;-62
2021/12/27 03:22:24;;;;;;;5.10;4.20;;;9.00;99.90;;;;;;4996423;28;20167;-62
2021/12/27 03:24:50;;;;;;;4.73;4.30;;;9.10;99.90;;;;;;4996113;28;20207;-62
2021/12/27 03:27:16;;;;;;;3.93;3.63;;;9.20;99.90;;;;;;4996318;28;20179;-62
2021/12/27 03:29:41;;;;;;;4.03;3.40;;;9.10;99.90;;;;;;4996590;28;20172;-60
2021/12/27 03:32:07;;;;;;;4.80;3.87;;;9.10;99.90;;;;;;4996570;28;20175;-62
2021/12/27 03:34:33;;;;;;;4.50;3.83;;;9.00;99.90;;;;;;4996205;28;20185;-61
2021/12/27 03:36:59;;;;;;;4.47;4.07;;;9.10;99.90;;;;;;4996277;28;20234;-62
2021/12/27 03:39:25;;;;;;;4.47;4.07;;;9.10;99.90;;;;;;4996488;28;20417;-62
2021/12/27 03:41:51;;;;;;;4.43;3.97;;;9.00;99.90;;;;;;4996310;28;20783;-62
2021/12/27 03:44:16;;;;;;;5.00;4.00;;;9.00;99.90;;;;;;4995956;28;20657;-63
2021/12/27 03:46:42;;;;;;;3.70;3.40;;;9.00;99.90;;;;;;4996070;28;20160;-62
2021/12/27 03:49:07;;;;;;;3.97;2.70;;;9.00;99.90;;;;;;4995963;28;20175;-63
2021/12/27 03:51:33;;;;;;;3.30;2.97;;;9.00;99.90;;;;;;4996017;28;20168;-62
2021/12/27 03:53:59;;;;;;;3.87;3.40;;;9.00;99.90;;;;;;4995937;28;20172;-61
2021/12/27 03:56:24;;;;;;;4.40;3.63;;;9.00;99.90;;;;;;4995715;28;20211;-62
2021/12/27 04:01:17;;;;;;;3.00;2.80;;;9.20;99.90;;;;;;4995918;28;20180;-62
2021/12/27 04:03:49;;;;;;;4.10;3.70;;;9.20;99.90;;;;;;4995740;28;20261;-62
2021/12/27 04:06:16;;;;;;;2.40;2.20;;;9.30;99.90;;;;;;4995664;28;20943;-61
2021/12/27 04:08:42;;;;;;;3.73;2.17;;;9.20;99.90;;;;;;4995633;28;20498;-60
2021/12/27 04:11:08;;;;;;;3.17;2.80;;;9.20;99.90;;;;;;4996096;28;20400;-61
2021/12/27 04:13:34;;;;;;;4.23;3.83;;;9.40;99.90;;;;;;4996117;28;20426;-61
2021/12/27 04:16:00;;;;;;;3.20;2.90;;;9.40;99.90;;;;;;4995413;28;20199;-61
2021/12/27 04:18:26;;;;;;;2.60;2.40;;;9.50;99.90;;;;;;4995530;28;20415;-60
2021/12/27 04:20:51;;;;;;;3.00;2.80;;;9.60;99.90;;;;;;4994364;28;20175;-60
2021/12/27 04:23:18;;;;;;;2.53;2.33;;;9.60;99.90;;;;;;4995656;28;20204;-60
2021/12/27 04:25:44;;;;;;;2.30;2.10;;;9.60;99.90;;;;;;4996576;28;20211;-62
2021/12/27 04:28:10;;;;;;;2.53;2.33;;;9.50;99.90;;;;;;4995629;28;20413;-62
2021/12/27 04:30:36;;;;;;;2.40;2.20;;;9.50;99.90;;;;;;4995431;28;20415;-62
2021/12/27 04:33:02;;;;;;;2.40;1.90;;;9.50;99.90;;;;;;4995106;28;20505;-63
2021/12/27 04:35:28;;;;;;;2.40;2.20;;;9.50;99.90;;;;;;4995128;28;20612;-63
2021/12/27 04:37:54;;;;;;;2.60;2.33;;;9.60;99.90;;;;;;4995584;28;20407;-62
2021/12/27 04:40:22;;;;;;;2.73;2.53;;;9.50;99.90;;;;;;4994956;28;20407;-62
2021/12/27 04:42:57;;;;;;;3.00;2.17;;;9.30;99.90;;;;;;4995359;28;20171;-62
2021/12/27 04:45:23;;;;;;;2.27;1.97;;;9.30;99.90;;;;;;4994951;28;20449;-61
2021/12/27 04:47:48;;;;;;;3.70;2.20;;;9.30;99.90;;;;;;4995180;28;20467;-61
2021/12/27 04:50:14;;;;;;;2.70;2.40;;;9.20;99.90;;;;;;4995028;28;20396;-60
2021/12/27 04:52:41;;;;;;;2.53;2.33;;;9.20;99.90;;;;;;4995325;28;20179;-59
2021/12/27 04:55:07;;;;;;;2.40;2.20;;;9.30;99.90;;;;;;4993734;28;20522;-60
2021/12/27 04:57:32;;;;;;;4.47;2.00;;;9.20;99.90;;;;;;4994737;28;20466;-61
2021/12/27 04:59:58;;;;;;;2.50;2.30;;;9.20;99.90;;;;;;4994818;28;20403;-61
2021/12/27 05:02:24;;;;;;;2.30;2.10;;;9.20;99.90;;;;;;4994781;28;20165;-60
2021/12/27 05:04:49;;;;;;;2.20;2.00;;;9.10;99.90;;;;;;4994874;28;20210;-61
2021/12/27 05:07:15;;;;;;;2.83;2.03;;;9.00;99.90;;;;;;4994391;28;20176;-61
2021/12/27 05:09:41;;;;;;;2.00;1.90;;;9.10;99.90;;;;;;4995021;28;20168;-60
2021/12/27 05:12:07;;;;;;;2.63;2.43;;;9.20;99.90;;;;;;4994650;28;20260;-59
2021/12/27 05:14:32;;;;;;;3.00;2.20;;;9.30;99.90;;;;;;4994356;28;20192;-61
2021/12/27 05:16:58;;;;;;;2.33;2.10;;;9.40;99.90;;;;;;4994408;28;20408;-62
2021/12/27 05:19:24;;;;;;;2.80;2.00;;;9.50;99.90;;;;;;4994552;28;20649;-62
2021/12/27 05:21:49;;;;;;;2.53;1.83;;;9.50;99.90;;;;;;4994342;28;20196;-61
2021/12/27 05:24:16;;;;;;;1.73;1.63;;;9.70;99.90;;;;;;4994282;28;20203;-62
2021/12/27 05:26:41;;;;;;;2.57;2.37;;;9.70;99.90;;;;;;4994405;28;20176;-62
2021/12/27 05:29:07;;;;;;;2.60;2.17;;;9.70;99.90;;;;;;4994844;28;20411;-62
2021/12/27 05:31:33;;;;;;;2.90;2.47;;;9.70;99.90;;;;;;4994171;28;20263;-63
2021/12/27 05:33:58;;;;;;;2.33;2.13;;;9.60;99.90;;;;;;4994052;28;20180;-62
2021/12/27 05:36:24;;;;;;;2.23;2.03;;;9.60;99.90;;;;;;4994089;28;20243;-62
2021/12/27 05:38:50;;;;;;;2.50;1.90;;;9.60;99.90;;;;;;4994128;28;20218;-62
2021/12/27 05:41:15;;;;;;;2.30;1.90;;;9.50;99.90;;;;;;4994002;28;20202;-62
2021/12/27 05:43:42;;;;;;;7.50;2.43;;;9.50;99.90;;;;;;4993789;28;20778;-61
2021/12/27 05:46:07;;;;;;;1.93;1.73;;;9.50;99.90;;;;;;4993965;28;20193;-61
2021/12/27 05:48:33;;;;;;;2.33;2.13;;;9.50;99.90;;;;;;4993968;28;20494;-62
2021/12/27 05:50:59;;;;;;;2.27;2.07;;;9.60;99.90;;;;;;4994167;28;20173;-62
2021/12/27 05:53:24;;;;;;;2.33;2.13;;;9.70;99.90;;;;;;4993830;28;20177;-62
2021/12/27 05:55:51;;;;;;;2.10;1.90;;;9.70;99.90;;;;;;4994348;28;20603;-62
2021/12/27 05:58:16;;;;;;;2.10;1.90;;;9.70;99.90;;;;;;4994165;28;20271;-62
2021/12/27 06:00:42;;;;;;;1.73;1.63;;;9.80;99.90;;;;;;4993996;28;20412;-61
2021/12/27 06:03:08;;;;;;;1.93;1.50;;;9.60;99.90;;;;;;4994145;28;20161;-61
2021/12/27 06:05:33;;;;;;;2.30;2.17;;;9.60;99.90;;;;;;4993893;28;20664;-61
2021/12/27 06:08:00;;;;;;;2.10;1.90;;;9.60;99.90;;;;;;4993821;28;20255;-61
2021/12/27 06:10:26;;;;;;;1.80;1.70;;;9.50;99.90;;;;;;4993802;28;20164;-61
2021/12/27 06:12:52;;;;;;;2.10;2.00;;;9.60;99.90;;;;;;4994212;28;20901;-61
2021/12/27 06:15:18;;;;;;;2.70;2.43;;;9.60;99.90;;;;;;4993966;28;20207;-61
2021/12/27 06:17:43;;;;;;;2.40;2.13;;;9.60;99.90;;;;;;4993580;28;20169;-61
2021/12/27 06:20:12;;;;;;;2.50;2.30;;;9.50;99.90;;;;;;4994003;28;20165;-61
2021/12/27 06:22:42;;;;;;;2.67;2.43;;;9.50;99.90;;;;;;4993516;28;20560;-61
2021/12/27 06:25:09;;;;;;;1.90;1.80;;;9.50;99.90;;;;;;4993330;28;20493;-61
2021/12/27 06:27:35;;;;;;;1.90;1.70;;;9.40;99.90;;;;;;4993805;28;20776;-61
2021/12/27 06:30:04;;;;;;;2.37;2.17;;;9.30;99.90;;;;;;4993868;28;20552;-61
2021/12/27 06:32:29;;;;;;;3.83;2.60;;;9.30;99.90;;;;;;4993423;28;20411;-61
2021/12/27 06:34:55;;;;;;;4.53;1.80;;;9.10;99.90;;;;;;4993295;28;20435;-61
2021/12/27 06:37:21;;;;;;;3.40;2.53;;;9.00;99.90;;;;;;4993398;28;20179;-62
2021/12/27 06:39:46;;;;;;;1.73;1.63;;;8.80;99.90;;;;;;4993844;28;20186;-62
2021/12/27 06:42:13;;;;;;;2.60;2.40;;;8.70;99.90;;;;;;4994053;28;20694;-62
2021/12/27 06:44:39;;;;;;;2.47;2.27;;;8.50;99.90;;;;;;4996860;28;20204;-62
2021/12/27 06:47:05;;;;;;;2.57;2.30;;;8.50;99.90;;;;;;4996997;28;20412;-62
2021/12/27 06:49:31;;;;;;;2.50;2.30;;;8.40;99.90;;;;;;4997280;28;20174;-62
2021/12/27 06:51:58;;;;;;;3.10;2.77;;;8.40;99.90;;;;;;4996978;28;20162;-61
2021/12/27 06:54:23;;;;;;;4.00;3.60;;;8.30;99.90;;;;;;4997097;28;20415;-62
2021/12/27 06:56:49;;;;;;;3.63;2.60;;;8.30;99.90;;;;;;4996981;28;20414;-62
2021/12/27 06:59:15;;;;;;;5.37;2.97;;;8.10;99.90;;;;;;4996779;28;20203;-62
2021/12/27 07:01:41;;;;;;;4.17;3.60;;;8.10;99.90;;;;;;4997232;28;20185;-62
2021/12/27 07:04:06;;;;;;;2.97;2.67;;;8.00;99.90;;;;;;4996807;28;20470;-61
2021/12/27 07:06:32;;;;;;;3.10;2.80;;;7.90;99.90;;;;;;4996603;28;20192;-62
2021/12/27 07:08:58;;;;;;;3.63;3.23;;;7.70;99.90;;;;;;4996662;28;20231;-61
2021/12/27 07:11:23;;;;;;;3.37;3.07;;;7.60;99.90;;;;;;4996602;28;20600;-62
2021/12/27 07:13:49;;;;;;;3.50;2.90;;;7.50;99.90;;;;;;4996728;28;20169;-62
2021/12/27 07:16:15;;;;;;;3.30;3.00;;;7.50;99.90;;;;;;4996574;28;20612;-63
2021/12/27 07:18:40;;;;;;;3.53;3.23;;;7.30;99.90;;;;;;4996382;28;20201;-62
2021/12/27 07:21:06;;;;;;;6.83;4.10;;;7.30;99.90;;;;;;4996786;28;20178;-63
2021/12/27 07:23:31;;;;;;;5.40;3.97;;;7.40;99.90;;;;;;4996859;28;20200;-61
2021/12/27 07:25:57;;;;;;;6.53;4.33;;;7.40;99.90;;;;;;4996163;28;20580;-62
2021/12/27 07:28:23;;;;;;;6.40;4.47;;;7.30;99.90;;;;;;4996515;28;20642;-62
2021/12/27 07:30:48;;;;;;;5.97;5.33;;;7.30;99.90;;;;;;4996558;28;20171;-61
2021/12/27 07:33:15;;;;;;;9.07;7.03;;;7.30;99.90;;;;;;4996718;28;20223;-61
2021/12/27 07:35:41;;;;;;;9.80;6.57;;;7.30;99.90;;;;;;4996380;28;20200;-62
2021/12/27 07:38:07;;;;;;;8.10;6.10;;;7.30;99.90;;;;;;4996600;28;20435;-61
2021/12/27 07:40:33;;;;;;;9.00;6.30;;;7.40;99.90;;;;;;4996395;28;20202;-62
2021/12/27 07:42:59;;;;;;;4.97;4.57;;;7.60;99.90;;;;;;4996306;28;20505;-62
2021/12/27 07:45:24;;;;;;;5.23;4.77;;;7.60;99.90;;;;;;4996109;28;20205;-62
2021/12/27 07:47:50;;;;;;;5.73;4.50;;;7.60;99.90;;;;;;4995938;28;20174;-62
2021/12/27 07:50:16;;;;;;;6.37;5.63;;;7.60;99.90;;;;;;4996209;28;20173;-61
2021/12/27 07:52:42;;;;;;;5.37;4.87;;;7.70;99.90;;;;;;4996089;28;20406;-61
2021/12/27 07:55:08;;;;;;;4.37;3.53;;;7.70;99.90;;;;;;4995791;28;20194;-62
2021/12/27 07:57:33;;;;;;;3.90;3.60;;;7.80;99.90;;;;;;4996176;28;20211;-62
2021/12/27 07:59:59;;;;;;;4.70;4.17;;;7.80;99.90;;;;;;4995676;28;20430;-61
2021/12/27 08:02:25;;;;;;;8.47;6.97;;;7.90;99.90;;;;;;4995759;28;20179;-61
2021/12/27 08:04:50;;;;;;;5.60;5.10;;;7.70;99.90;;;;;;4995423;28;20220;-62
2021/12/27 08:07:16;;;;;;;6.40;5.40;;;7.80;99.90;;;;;;4995555;28;20172;-60
2021/12/27 08:09:42;;;;;;;4.87;4.47;;;7.90;99.90;;;;;;4995458;28;20180;-61
2021/12/27 08:12:12;;;;;;;5.13;4.33;;;7.90;99.90;;;;;;4995783;28;20252;-59
2021/12/27 08:14:38;;;;;;;7.67;4.90;;;7.90;99.90;;;;;;4995691;28;20572;-62
2021/12/27 08:17:03;;;;;;;6.40;5.40;;;8.00;99.90;;;;;;4995414;28;20413;-62
2021/12/27 08:19:29;;;;;;;4.67;4.30;;;7.90;99.90;;;;;;4995828;28;20411;-62
2021/12/27 08:21:55;;;;;;;4.97;4.57;;;8.00;99.90;;;;;;4995698;28;20177;-61
2021/12/27 08:24:20;;;;;;;4.50;4.10;;;8.00;99.90;;;;;;4995093;28;20290;-62
2021/12/27 08:26:47;;;;;;;5.00;4.50;;;8.10;99.90;;;;;;4995683;28;20634;-62
2021/12/27 08:29:13;;;;;;;5.20;4.60;;;8.20;99.90;;;;;;4995551;28;20171;-61
2021/12/27 08:31:38;;;;;;;4.80;4.37;;;8.20;99.90;;;;;;4995142;28;20413;-59
2021/12/27 08:34:04;;;;;;;5.47;4.93;;;8.10;99.90;;;;;;4995370;28;20424;-62
2021/12/27 08:36:30;;;;;;;5.67;5.17;;;8.10;99.90;;;;;;4994955;28;20203;-62
2021/12/27 08:38:55;;;;;;;6.53;5.93;;;8.00;99.90;;;;;;4995004;28;20528;-62
2021/12/27 08:41:27;;;;;;;4.90;4.47;;;8.10;99.90;;;;;;4995201;28;20197;-62
2021/12/27 08:43:57;;;;;;;5.30;4.80;;;8.30;99.90;;;;;;4995012;28;20198;-62
2021/12/27 08:46:22;;;;;;;4.30;3.90;;;8.40;99.90;;;;;;4995075;28;20857;-61
2021/12/27 08:48:48;;;;;;;5.03;4.53;;;8.50;99.90;;;;;;4995127;28;20415;-61
2021/12/27 08:51:14;;;;;;;7.07;4.87;;;8.70;99.90;;;;;;4996070;28;20168;-62
2021/12/27 08:53:40;;;;;;;5.00;4.00;;;8.90;99.90;;;;;;4995962;28;20217;-61
2021/12/27 08:56:06;;;;;;;4.53;3.90;;;9.00;99.90;;;;;;4995554;28;20198;-61
2021/12/27 08:58:31;;;;;;;4.87;4.37;;;9.00;99.90;;;;;;4996340;28;20437;-61
2021/12/27 09:00:57;;;;;;;4.20;3.80;;;9.10;99.90;;;;;;4997019;28;20509;-60
2021/12/27 09:03:23;;;;;;;4.17;3.87;;;9.30;99.90;;;;;;4995597;28;20168;-61
2021/12/27 09:05:48;;;;;;;4.40;4.10;;;9.30;99.90;;;;;;4995304;28;20196;-61
2021/12/27 09:08:14;;;;;;;4.30;3.50;;;9.40;99.90;;;;;;4996165;28;20600;-62
2021/12/27 09:10:40;;;;;;;6.60;4.20;;;9.40;99.90;;;;;;4995941;28;20168;-60
2021/12/27 09:13:05;;;;;;;5.00;4.10;;;9.40;99.90;;;;;;4994886;28;20218;-60
2021/12/27 09:15:31;;;;;;;4.80;3.77;;;9.40;99.90;;;;;;4995611;28;20284;-61
2021/12/27 09:17:57;;;;;;;4.30;3.90;;;9.50;99.90;;;;;;4995135;28;20179;-61
2021/12/27 09:20:25;;;;;;;4.77;4.37;;;9.60;99.90;;;;;;4994677;28;20419;-63
2021/12/27 09:22:51;;;;;;;4.03;3.73;;;9.60;99.90;;;;;;4994497;28;20434;-63
2021/12/27 09:25:17;;;;;;;3.87;3.57;;;9.50;99.90;;;;;;4994532;28;20472;-62
2021/12/27 09:27:43;;;;;;;4.37;3.70;;;9.60;99.90;;;;;;4995064;28;20776;-61
2021/12/27 09:30:09;;;;;;;4.27;3.87;;;9.60;99.90;;;;;;4994654;28;20211;-62
2021/12/27 09:32:35;;;;;;;4.87;4.00;;;9.70;99.90;;;;;;4995107;28;20172;-62
2021/12/27 09:35:00;;;;;;;3.60;3.30;;;9.80;99.90;;;;;;4995515;28;20438;-61
2021/12/27 09:37:26;;;;;;;4.07;3.67;;;9.80;99.90;;;;;;4997450;28;20179;-61
2021/12/27 09:39:55;;;;;;;4.20;3.80;;;9.70;99.90;;;;;;4998211;28;20190;-61
2021/12/27 09:42:22;;;;;;;4.10;3.70;;;9.70;99.90;;;;;;4997982;28;20189;-61
2021/12/27 09:44:48;;;;;;;5.00;4.30;;;9.80;99.90;;;;;;5004196;28;20502;-62
2021/12/27 09:47:14;;;;;;;5.97;5.37;;;9.80;99.90;;;;;;5010408;28;20479;-62
2021/12/27 09:49:40;;;;;;;4.87;4.47;;;9.90;99.90;;;;;;5004667;28;20400;-61
2021/12/27 09:52:06;;;;;;;5.27;4.57;;;10.10;99.90;;;;;;5000445;28;20180;-62
2021/12/27 09:54:32;;;;;;;4.33;3.93;;;10.10;99.90;;;;;;4997938;28;20430;-62
2021/12/27 09:56:57;;;;;;;5.67;4.47;;;10.10;99.90;;;;;;4994120;28;20451;-62
2021/12/27 09:59:24;;;;;;;4.83;4.33;;;10.10;99.90;;;;;;4994021;28;20184;-62
2021/12/27 10:01:52;;;;;;;5.80;4.60;;;10.10;99.90;;;;;;4994089;28;20572;-62
2021/12/27 10:04:19;;;;;;;5.20;4.70;;;10.20;99.90;;;;;;4994147;28;20506;-62
2021/12/27 10:06:44;;;;;;;6.83;4.00;;;10.40;99.90;;;;;;4994354;28;20492;-62
2021/12/27 10:09:10;;;;;;;4.30;3.90;;;10.50;99.90;;;;;;4993659;28;20949;-62
2021/12/27 10:11:38;;;;;;;4.17;3.37;;;10.40;99.90;;;;;;4993778;28;20169;-63
2021/12/27 10:14:13;;;;;;;4.83;3.60;;;10.40;99.90;;;;;;4993807;28;20561;-62
2021/12/27 10:16:42;;;;;;;3.60;3.23;;;10.30;99.90;;;;;;4994472;28;20384;-62
2021/12/27 10:19:10;;;;;;;4.90;3.93;;;10.30;99.90;;;;;;4996777;28;20442;-62
2021/12/27 10:21:41;;;;;;;4.23;3.43;;;10.30;99.90;;;;;;4997614;28;20440;-62
2021/12/27 10:24:16;;;;;;;4.93;3.40;;;10.40;99.90;;;;;;4997927;28;20461;-62
2021/12/27 10:26:49;;;;;;;4.63;3.33;;;10.20;99.90;;;;;;5023083;23;20496;-60
2021/12/27 10:29:26;;;;;;;4.17;3.67;;;10.20;99.90;;;;;;4997435;28;20408;-60
2021/12/27 10:31:57;;;;;;;3.90;3.50;;;10.10;99.90;;;;;;4997525;28;20813;-61
2021/12/27 10:34:30;;;;;;;14.93;9.97;;;10.30;99.90;;;;;;4997207;28;20486;-61
2021/12/27 10:36:58;;;;;;;7.07;5.27;;;10.40;99.90;;;;;;4997343;28;20482;-61
2021/12/27 10:39:27;;;;;;;4.80;4.23;;;10.50;99.90;;;;;;4997058;28;20404;-62
2021/12/27 10:41:52;;;;;;;4.73;4.20;;;10.50;99.90;;;;;;4997324;28;20396;-62
2021/12/27 10:44:19;;;;;;;5.40;4.67;;;10.40;99.90;;;;;;4997070;28;20513;-62
2021/12/27 10:46:44;;;;;;;5.87;4.50;;;10.40;99.90;;;;;;4997127;28;20184;-62
2021/12/27 10:49:10;;;;;;;4.20;3.80;;;10.40;99.90;;;;;;4997309;28;20401;-62
2021/12/27 10:51:35;;;;;;;3.93;3.60;;;10.40;99.90;;;;;;4997304;28;20174;-62
2021/12/27 10:54:07;;;;;;;7.90;7.20;;;10.40;99.90;;;;;;4997485;28;20208;-62
2021/12/27 10:56:53;;;;;;;7.60;7.00;;;10.40;99.90;;;;;;4997278;28;20283;-58
2021/12/27 10:59:20;;;;;;;4.30;3.40;;;10.60;99.90;;;;;;4997272;28;20805;-62
2021/12/27 11:01:48;;;;;;;3.60;3.30;;;11.60;99.90;;;;;;4996696;28;20408;-63
2021/12/27 11:04:17;;;;;;;4.07;2.90;;;13.20;99.90;;;;;;4996604;28;20531;-63
2021/12/27 11:06:43;;;;;;;3.60;2.97;;;15.20;99.90;;;;;;4997106;28;20956;-62
2021/12/27 11:09:09;;;;;;;3.10;2.80;;;16.80;99.90;;;;;;4997061;28;20394;-62
2021/12/27 11:11:35;;;;;;;3.50;3.20;;;17.40;99.90;;;;;;4996656;28;20181;-62
2021/12/27 11:14:01;;;;;;;5.00;3.60;;;17.90;99.90;;;;;;4997023;28;20407;-59
2021/12/27 11:16:28;;;;;;;3.07;2.70;;;18.40;99.90;;;;;;4996673;28;20191;-63
2021/12/27 11:18:58;;;;;;;2.60;2.30;;;19.50;99.90;;;;;;4996692;28;20593;-63
2021/12/27 11:21:37;;;;;;;3.17;2.87;;;20.60;99.10;;;;;;4996630;28;20412;-63
2021/12/27 11:24:04;;;;;;;3.20;2.83;;;21.40;97.00;;;;;;4996684;28;20477;-63
2021/12/27 11:26:33;;;;;;;3.13;2.60;;;21.00;95.80;;;;;;4996090;28;20471;-63
2021/12/27 11:29:23;;;;;;;2.93;2.73;;;20.00;96.30;;;;;;4996087;28;20407;-63
2021/12/27 11:31:52;;;;;;;3.10;2.90;;;17.20;99.50;;;;;;4996568;28;20381;-63
2021/12/27 11:34:19;;;;;;;3.77;3.37;;;15.90;99.90;;;;;;4996378;28;20495;-63
2021/12/27 11:36:49;;;;;;;4.20;2.70;;;15.60;99.90;;;;;;4996075;28;20512;-62
2021/12/27 11:39:20;;;;;;;3.60;3.30;;;15.40;99.90;;;;;;4994808;28;20431;-63
2021/12/27 11:42:09;;;;;;;6.30;5.70;;;15.30;99.90;;;;;;4995929;28;20980;-63
2021/12/27 11:44:58;;;;;;;3.50;3.20;;;15.00;99.90;;;;;;4996145;28;20859;-63
2021/12/27 11:47:30;;;;;;;3.70;3.23;;;14.60;99.90;;;;;;4996201;28;20407;-63
2021/12/27 11:50:02;;;;;;;3.30;3.00;;;14.70;99.90;;;;;;4994606;28;20423;-62
2021/12/27 11:52:29;;;;;;;4.03;3.73;;;14.90;99.90;;;;;;4995843;28;20978;-63
2021/12/27 11:55:11;;;;;;;3.23;2.90;;;15.20;99.90;;;;;;4996128;28;20785;-59
2021/12/27 11:57:48;;;;;;;3.33;3.03;;;15.30;99.90;;;;;;4996119;28;20409;-63
2021/12/27 12:00:28;;;;;;;4.53;3.57;;;15.10;99.90;;;;;;4995767;28;20392;-63
2021/12/27 12:03:14;;;;;;;3.70;3.40;;;14.90;99.90;;;;;;4996150;28;20392;-63
2021/12/27 12:05:51;;;;;;;3.83;3.40;;;15.00;99.90;;;;;;4994707;28;21027;-63
2021/12/27 12:08:37;;;;;;;4.50;4.00;;;15.00;99.90;;;;;;4996159;28;20394;-62
2021/12/27 12:11:10;;;;;;;5.10;4.30;;;14.60;99.90;;;;;;4995935;28;20442;-63
2021/12/27 12:13:47;;;;;;;4.67;4.27;;;14.60;99.90;;;;;;4995597;28;20384;-63
2021/12/27 12:16:18;;;;;;;3.77;3.47;;;13.80;99.90;;;;;;4995359;28;20480;-63
2021/12/27 12:19:03;;;;;;;4.63;4.23;;;13.90;99.90;;;;;;4995352;28;20777;-63
2021/12/27 12:21:51;;;;;;;4.93;4.50;;;13.90;99.90;;;;;;4995481;28;20482;-63
2021/12/27 12:24:20;;;;;;;6.03;4.10;;;13.40;99.90;;;;;;4995346;28;20447;-63
2021/12/27 12:26:53;;;;;;;4.40;4.07;;;13.20;99.90;;;;;;4994964;28;20981;-63
2021/12/27 12:29:20;;;;;;;5.80;5.30;;;13.10;99.90;;;;;;4995378;28;20411;-61
2021/12/27 12:31:46;;;;;;;4.27;3.90;;;13.10;99.90;;;;;;4995237;28;20402;-63
2021/12/27 12:34:19;;;;;;;5.37;4.47;;;13.10;99.90;;;;;;4993736;28;20468;-62
2021/12/27 12:36:52;;;;;;;5.37;4.87;;;13.00;99.90;;;;;;4994867;28;20424;-63
2021/12/27 12:39:20;;;;;;;6.10;4.90;;;13.00;99.90;;;;;;4995363;28;20778;-63
2021/12/27 12:41:47;;;;;;;5.50;5.00;;;12.70;99.90;;;;;;4994408;28;20818;-63
2021/12/27 12:44:14;;;;;;;6.10;5.50;;;12.50;99.90;;;;;;4994890;28;20897;-65
2021/12/27 12:46:46;;;;;;;5.90;5.40;;;12.70;99.90;;;;;;4995051;28;20495;-61
2021/12/27 12:49:19;;;;;;;5.63;5.00;;;12.90;99.90;;;;;;4995058;28;20378;-62
2021/12/27 12:51:53;;;;;;;4.97;4.50;;;12.70;99.90;;;;;;4994390;28;20427;-62
2021/12/27 12:54:27;;;;;;;4.80;4.40;;;12.90;99.90;;;;;;4994710;28;20423;-63
2021/12/27 12:56:57;;;;;;;4.57;4.17;;;13.00;99.90;;;;;;4994715;28;20424;-62
2021/12/27 12:59:25;;;;;;;5.53;4.63;;;13.20;99.90;;;;;;4994699;28;20478;-61
2021/12/27 13:01:54;;;;;;;4.70;4.30;;;13.30;99.90;;;;;;5009543;28;20519;-63